Marcola, OR (97454)

4:39 AM PST on February 01, 2015 (GMT -0800)
APRSWXNET Springfield OR US | Change Station
CLOSE
Current Station
Personal Weather Station
Location: Thurston, OR
Elevation: 554 ft
Nearby Weather Stations

Elev 554 ft 44.07 °N, 122.84 °W | Updated 38 minutes ago

Overcast
Overcast
40 °F
Feels Like 36 °F
N
5
Wind Variable Wind from East
Gusts 7.0 mph

Today
High -- | Low -- °F
--% Chance of Precip.
Yesterday
High -- | Low -- °F
Precip. -- in
7:29 AM 5:20 PM
Waxing Gibbous, 94% visible
Pressure 30.11 in
Visibility 2.5 miles
Clouds Overcast 200 ft
Windchill 36 °F
Dew Point 39 °F
Humidity 97%
Rainfall 0.00 in
Snow Depth Not available.
UV 0 out of 12
Pollen 4.20 out of 12
Air Quality Not available.
Flu Activity Not available.
SPECI KEUG 011216Z AUTO 33003KT 2 1/2SM BR OVC002 04/03 A3011 RMK AO2 T00440033

More Conditions Fewer Conditions

Pressure 30.11 in
Visibility 2.5 miles
Clouds Overcast 200 ft
Windchill 36 °F
Dew Point 39 °F
Humidity 97%
Rainfall 0.00 in
Snow Depth Not available.
UV 0 out of 12
Pollen 4.20 out of 12
Air Quality Not available.
Flu Activity Not available.
SPECI KEUG 011216Z AUTO 33003KT 2 1/2SM BR OVC002 04/03 A3011 RMK AO2 T00440033

More Conditions Fewer Conditions

10-Day Weather Forecast

Almanac

Astronomy

Feb. 01, 2015 Rise Set
Actual Time
Civil Twilight
Nautical Twilight
Astronomical Twilight
Moon
Length of Visible Light
Length of Day
Tomorrow will be .
, % of the Moon is Illuminated

Today's Extremes

State Highs State Lows

Community

WunderPhotos

Upload Photos

1,792,352 photos uploaded!

WunderBlogs® & News

Nearby

Air Quality

  Air Quality AQ Index Pollutant
Not available.

Snow Depth

Station Depth Elevation

Earthquake Activity

City Distance Mag. Time & Date
Minimum magnitude displayed is 2.5.

Coastal Water Temperatures

Place Temperature

Nearby Weather Stations